Time;durP1;ratioP1;P1;durP2;ratioP2;P2;SDS_P1;SDS_P2;PMS_P1;PMS_P2;Temp;Humidity;BMP_temperature;BMP_pressure;BME280_temperature;BME280_humidity;BME280_pressure;Samples;Min_cycle;Max_cycle;Signal;HPM_P1;HPM_P2
2022/01/18 00:00:17;;;;;;;229.85;37.30;;;0.30;99.90;;;;;;5055326;28;20032;-79
2022/01/18 00:02:43;;;;;;;131.32;32.45;;;0.30;99.90;;;;;;5057590;28;20036;-79
2022/01/18 00:05:14;;;;;;;201.18;33.80;;;0.30;99.90;;;;;;5049661;28;20033;-79
2022/01/18 00:07:41;;;;;;;247.23;36.92;;;0.30;99.90;;;;;;5053727;28;20044;-79
2022/01/18 00:10:08;;;;;;;201.05;35.60;;;0.30;99.90;;;;;;5055981;28;20505;-79
2022/01/18 00:18:07;;;;;;;150.75;34.60;;;0.30;99.90;;;;;;5057459;28;20099;-78
2022/01/18 00:23:29;;;;;;;262.98;37.60;;;0.40;99.90;;;;;;5057047;28;20059;-79
2022/01/18 00:25:57;;;;;;;337.15;45.40;;;0.40;99.90;;;;;;5057249;28;20033;-79
2022/01/18 00:28:25;;;;;;;248.95;38.15;;;0.30;99.90;;;;;;5056817;28;20029;-78
2022/01/18 00:33:36;;;;;;;161.07;34.97;;;0.40;99.90;;;;;;5057221;28;20074;-78
2022/01/18 00:36:09;;;;;;;153.82;36.17;;;0.40;99.90;;;;;;5057151;28;20037;-79
2022/01/18 00:38:48;;;;;;;197.38;37.38;;;0.40;99.90;;;;;;5056847;28;20029;-79
2022/01/18 00:41:16;;;;;;;218.77;38.38;;;0.50;99.90;;;;;;5057087;28;20064;-79
2022/01/18 00:43:42;;;;;;;208.40;36.75;;;0.50;99.90;;;;;;5055340;28;20108;-79
2022/01/18 00:46:08;;;;;;;124.13;36.05;;;0.50;99.90;;;;;;5056858;28;20025;-79
2022/01/18 00:48:35;;;;;;;186.93;34.72;;;0.40;99.90;;;;;;5057093;28;20032;-79
2022/01/18 00:51:08;;;;;;;245.15;42.63;;;0.50;99.90;;;;;;5054787;28;20033;-79
2022/01/18 00:53:36;;;;;;;164.13;35.90;;;0.50;99.90;;;;;;5055702;28;20079;-79
2022/01/18 00:58:31;;;;;;;148.20;37.17;;;0.50;99.90;;;;;;5057183;28;20048;-79
2022/01/18 01:00:57;;;;;;;141.73;36.20;;;0.50;99.90;;;;;;5060810;28;20036;-79
2022/01/18 01:03:22;;;;;;;185.52;38.38;;;0.50;99.90;;;;;;5060803;28;20025;-79
2022/01/18 01:05:48;;;;;;;140.35;37.58;;;0.50;99.90;;;;;;5060645;28;20468;-79
2022/01/18 01:08:14;;;;;;;179.65;37.72;;;0.50;99.90;;;;;;5060679;28;20041;-79
2022/01/18 01:10:40;;;;;;;144.00;40.75;;;0.50;99.90;;;;;;5060454;28;20029;-79
2022/01/18 01:13:06;;;;;;;138.05;35.67;;;0.60;99.90;;;;;;5060394;28;20025;-80
2022/01/18 01:15:37;;;;;;;165.70;33.92;;;0.60;99.90;;;;;;5060421;28;20457;-79
2022/01/18 01:44:56;;;;;;;151.45;33.58;;;0.60;99.90;;;;;;5060203;28;20032;-80
2022/01/18 01:47:33;;;;;;;124.47;32.90;;;0.60;99.90;;;;;;5058714;28;20025;-80
2022/01/18 01:49:59;;;;;;;108.90;26.83;;;0.60;99.90;;;;;;5058470;28;20040;-79
2022/01/18 01:52:25;;;;;;;133.25;29.85;;;0.60;99.90;;;;;;5060023;28;20056;-79
2022/01/18 01:54:54;;;;;;;98.50;25.10;;;0.60;99.90;;;;;;5058345;28;20032;-79
2022/01/18 01:57:19;;;;;;;75.18;27.20;;;0.60;99.90;;;;;;5059564;28;20021;-79
2022/01/18 01:59:45;;;;;;;112.40;31.33;;;0.60;99.90;;;;;;5059621;28;20017;-79
2022/01/18 02:02:11;;;;;;;107.68;28.23;;;0.60;99.90;;;;;;5059681;28;20103;-79
2022/01/18 02:04:37;;;;;;;112.00;28.08;;;0.60;99.90;;;;;;5058262;28;20051;-80
2022/01/18 02:07:03;;;;;;;70.35;26.85;;;0.60;99.90;;;;;;5043164;28;20072;-80
2022/01/18 02:09:30;;;;;;;101.53;26.75;;;0.60;99.90;;;;;;5042034;28;20041;-80
2022/01/18 02:11:57;;;;;;;60.65;24.60;;;0.60;99.90;;;;;;5040286;28;20016;-79
2022/01/18 02:14:24;;;;;;;126.03;28.85;;;0.60;99.90;;;;;;5040446;28;20043;-80
2022/01/18 02:22:19;;;;;;;118.70;24.27;;;0.50;99.90;;;;;;5058970;28;20106;-80
2022/01/18 02:24:45;;;;;;;111.78;25.13;;;0.50;99.90;;;;;;5058770;28;20017;-80
2022/01/18 02:27:12;;;;;;;149.55;26.27;;;0.50;99.90;;;;;;5056306;28;20485;-79
2022/01/18 02:29:37;;;;;;;71.35;23.83;;;0.50;99.90;;;;;;5058897;28;20036;-80
2022/01/18 02:32:04;;;;;;;111.60;28.67;;;0.50;99.90;;;;;;5057391;28;20084;-80
2022/01/18 02:34:30;;;;;;;120.28;25.63;;;0.50;99.90;;;;;;5058549;28;20448;-80
2022/01/18 02:36:57;;;;;;;66.38;23.70;;;0.50;99.90;;;;;;5057325;28;20021;-80
2022/01/18 02:39:27;;;;;;;56.85;25.80;;;0.50;99.90;;;;;;5058526;28;20067;-80
2022/01/18 02:41:59;;;;;;;85.88;23.27;;;0.50;99.90;;;;;;5058507;28;20473;-79
2022/01/18 02:44:27;;;;;;;103.20;23.27;;;0.50;99.90;;;;;;5059175;28;20029;-79
2022/01/18 02:46:53;;;;;;;141.45;25.77;;;0.50;99.90;;;;;;5057525;28;20120;-79
2022/01/18 02:49:19;;;;;;;63.70;23.55;;;0.50;99.90;;;;;;5058873;28;20044;-80
2022/01/18 02:51:46;;;;;;;81.13;22.95;;;0.50;99.90;;;;;;5058587;28;20100;-80
2022/01/18 02:54:15;;;;;;;95.20;22.42;;;0.50;99.90;;;;;;5058835;28;20035;-80
2022/01/18 02:56:46;;;;;;;88.75;19.63;;;0.40;99.90;;;;;;5057138;28;20063;-80
2022/01/18 02:59:21;;;;;;;101.15;18.98;;;0.40;99.90;;;;;;5057194;28;20116;-80
2022/01/18 03:04:39;;;;;;;72.88;20.77;;;0.30;99.90;;;;;;5058670;28;20036;-80
2022/01/18 03:07:05;;;;;;;91.28;21.80;;;0.30;99.90;;;;;;5057165;28;20052;-80
2022/01/18 03:09:31;;;;;;;76.20;22.63;;;0.30;99.90;;;;;;5058108;28;20048;-80
2022/01/18 03:11:57;;;;;;;106.18;26.42;;;0.30;99.90;;;;;;5058161;28;20029;-79
2022/01/18 03:14:23;;;;;;;106.55;23.75;;;0.30;99.90;;;;;;5058241;28;20029;-79
2022/01/18 03:16:49;;;;;;;71.55;19.80;;;0.40;99.90;;;;;;5058327;28;20052;-79
2022/01/18 03:19:15;;;;;;;93.30;21.08;;;0.30;99.90;;;;;;5058112;28;20385;-79
2022/01/18 03:21:41;;;;;;;62.92;20.05;;;0.30;99.90;;;;;;5058166;28;20025;-79
2022/01/18 03:24:19;;;;;;;94.30;21.02;;;0.30;99.90;;;;;;5056787;28;20025;-79
2022/01/18 03:29:31;;;;;;;40.83;17.13;;;0.20;99.90;;;;;;5026467;28;20029;-78
2022/01/18 03:31:57;;;;;;;99.82;20.08;;;0.20;99.90;;;;;;5054820;28;20151;-79
2022/01/18 03:34:23;;;;;;;90.00;20.15;;;0.10;99.90;;;;;;5058129;28;20401;-79
2022/01/18 03:36:48;;;;;;;70.18;18.98;;;0.10;99.90;;;;;;5057675;28;20028;-79
2022/01/18 03:39:15;;;;;;;35.05;18.45;;;0.10;99.90;;;;;;5056717;28;20052;-79
2022/01/18 03:41:41;;;;;;;85.13;19.45;;;0.10;99.90;;;;;;5057346;28;20061;-79
2022/01/18 03:44:07;;;;;;;87.03;24.50;;;0.20;99.90;;;;;;5056550;28;20028;-78
2022/01/18 03:46:36;;;;;;;167.10;23.80;;;0.10;99.90;;;;;;5056331;28;20072;-79
2022/01/18 03:49:04;;;;;;;126.82;22.83;;;0.00;99.90;;;;;;5056441;28;20035;-79
2022/01/18 03:51:30;;;;;;;129.77;26.45;;;0.10;99.90;;;;;;5057406;28;20032;-78
2022/01/18 03:53:56;;;;;;;180.25;26.95;;;0.10;99.90;;;;;;5057737;28;20099;-79
2022/01/18 03:56:21;;;;;;;141.52;27.20;;;0.10;99.90;;;;;;5057398;28;20033;-79
2022/01/18 03:58:47;;;;;;;84.00;24.40;;;0.10;99.90;;;;;;5057420;28;20021;-79
2022/01/18 04:01:13;;;;;;;121.65;25.33;;;0.20;99.90;;;;;;5057477;28;20033;-79
2022/01/18 04:03:38;;;;;;;69.43;19.00;;;0.10;99.90;;;;;;5056201;28;20029;-79
2022/01/18 04:06:04;;;;;;;47.80;20.13;;;0.10;99.90;;;;;;5057377;28;20028;-79
2022/01/18 04:08:30;;;;;;;43.72;19.48;;;0.10;99.90;;;;;;5057382;28;20102;-79
2022/01/18 04:10:56;;;;;;;93.47;21.85;;;0.10;99.90;;;;;;5047471;28;20107;-79
2022/01/18 04:13:22;;;;;;;81.47;18.90;;;0.10;99.90;;;;;;5048924;28;20025;-78
2022/01/18 04:15:47;;;;;;;71.63;19.48;;;0.00;99.90;;;;;;5055756;28;20462;-78
2022/01/18 04:18:27;;;;;;;48.67;18.42;;;0.00;99.90;;;;;;5055967;28;20025;-78
2022/01/18 04:28:55;;;;;;;60.95;18.08;;;0.10;99.90;;;;;;5056976;28;20032;-78
2022/01/18 04:31:22;;;;;;;41.90;17.08;;;0.10;99.90;;;;;;5055723;28;20033;-78
2022/01/18 04:33:48;;;;;;;98.40;20.17;;;0.00;99.90;;;;;;5056598;28;20075;-78
2022/01/18 04:36:13;;;;;;;57.33;18.52;;;0.00;99.90;;;;;;5042263;28;20033;-78
2022/01/18 04:38:40;;;;;;;49.42;21.67;;;0.10;99.90;;;;;;5055100;28;20104;-78
2022/01/18 04:41:10;;;;;;;57.42;20.63;;;0.10;99.90;;;;;;5056802;28;20043;-78
2022/01/18 04:49:03;;;;;;;58.30;19.50;;;0.20;99.90;;;;;;5057195;28;20048;-78
2022/01/18 04:51:29;;;;;;;76.20;22.55;;;0.20;99.90;;;;;;5056634;28;20029;-78
2022/01/18 04:53:57;;;;;;;74.10;24.65;;;0.20;99.90;;;;;;5056848;28;20045;-78
2022/01/18 04:59:06;;;;;;;47.63;21.52;;;0.20;99.90;;;;;;5056810;28;20032;-78
2022/01/18 05:01:33;;;;;;;184.73;30.67;;;0.20;99.90;;;;;;5056995;28;20021;-78
2022/01/18 05:03:59;;;;;;;55.08;20.42;;;0.30;99.90;;;;;;5055381;28;20029;-78
2022/01/18 05:06:24;;;;;;;76.35;20.63;;;0.30;99.90;;;;;;5056894;28;20028;-79
2022/01/18 05:08:50;;;;;;;66.38;17.88;;;0.30;99.90;;;;;;5055134;28;20071;-78
2022/01/18 05:11:19;;;;;;;50.38;20.13;;;0.30;99.90;;;;;;5055442;28;20033;-78
2022/01/18 05:23:59;;;;;;;85.68;18.52;;;0.20;99.90;;;;;;5056516;28;20079;-78
2022/01/18 05:26:27;;;;;;;94.90;18.23;;;0.10;99.90;;;;;;5056256;28;20028;-78
2022/01/18 05:28:52;;;;;;;109.03;18.52;;;0.10;99.90;;;;;;5056399;28;20025;-79
2022/01/18 05:31:18;;;;;;;127.95;19.95;;;0.00;99.90;;;;;;5056346;28;20043;-78
2022/01/18 05:33:46;;;;;;;90.25;18.60;;;0.00;99.90;;;;;;5056390;28;20029;-78
2022/01/18 05:36:12;;;;;;;43.40;15.32;;;0.00;99.90;;;;;;5054967;28;20493;-78
2022/01/18 05:38:39;;;;;;;38.35;17.35;;;0.00;99.90;;;;;;5056308;28;20029;-78
2022/01/18 05:41:07;;;;;;;90.45;20.42;;;0.10;99.90;;;;;;5045739;28;20516;-78
2022/01/18 05:43:33;;;;;;;93.45;19.33;;;0.10;99.90;;;;;;5053581;28;20033;-78
2022/01/18 05:45:59;;;;;;;119.35;21.27;;;0.10;99.90;;;;;;5056244;28;20817;-78
2022/01/18 05:48:26;;;;;;;105.65;19.45;;;0.10;99.90;;;;;;5059794;28;20482;-78
2022/01/18 05:50:54;;;;;;;119.57;20.45;;;0.10;99.90;;;;;;5059823;28;20017;-78
2022/01/18 05:53:21;;;;;;;123.68;21.05;;;0.10;99.90;;;;;;5059661;28;20060;-78
2022/01/18 05:55:47;;;;;;;51.65;19.40;;;0.10;99.90;;;;;;5059667;28;20021;-78
2022/01/18 05:58:13;;;;;;;106.75;20.52;;;0.10;99.90;;;;;;5057985;28;20451;-78
2022/01/18 06:00:40;;;;;;;127.63;21.75;;;0.20;99.90;;;;;;5059647;28;20025;-78
2022/01/18 06:03:15;;;;;;;72.47;21.98;;;0.10;99.90;;;;;;5058194;28;20036;-78
2022/01/18 06:08:25;;;;;;;59.72;20.40;;;0.20;99.90;;;;;;5059532;28;20103;-78
2022/01/18 06:10:51;;;;;;;46.85;21.20;;;0.20;99.90;;;;;;5059294;28;20033;-78
2022/01/18 06:13:17;;;;;;;61.35;22.73;;;0.20;99.90;;;;;;5050980;28;20028;-77
2022/01/18 06:15:44;;;;;;;54.17;21.20;;;0.30;99.90;;;;;;5059202;28;20074;-76
2022/01/18 06:18:10;;;;;;;69.13;18.80;;;0.30;99.90;;;;;;5057927;28;20025;-79
2022/01/18 06:20:36;;;;;;;110.57;19.77;;;0.30;99.90;;;;;;5059110;28;20025;-79
2022/01/18 06:23:02;;;;;;;81.40;16.88;;;0.30;99.90;;;;;;5059221;28;20539;-79
2022/01/18 06:25:28;;;;;;;60.13;18.98;;;0.30;99.90;;;;;;5059197;28;20108;-79
2022/01/18 06:27:54;;;;;;;65.28;17.30;;;0.30;99.90;;;;;;5057311;28;20033;-79
2022/01/18 06:30:20;;;;;;;80.18;16.70;;;0.30;99.90;;;;;;5058585;28;20021;-77
2022/01/18 06:32:46;;;;;;;53.15;18.10;;;0.30;99.90;;;;;;5059035;28;20024;-77
2022/01/18 06:35:14;;;;;;;54.53;17.55;;;0.20;99.90;;;;;;5058756;28;20096;-77
2022/01/18 06:37:40;;;;;;;68.18;18.45;;;0.30;99.90;;;;;;5057631;28;20081;-78
2022/01/18 06:40:09;;;;;;;53.92;16.30;;;0.30;99.90;;;;;;5058906;28;20458;-77
2022/01/18 06:42:34;;;;;;;44.90;15.40;;;0.20;99.90;;;;;;5056065;28;20905;-78
2022/01/18 06:45:01;;;;;;;48.15;16.30;;;0.20;99.90;;;;;;5058533;28;20068;-78
2022/01/18 06:47:27;;;;;;;38.13;16.98;;;0.20;99.90;;;;;;5057361;28;20028;-78
2022/01/18 06:49:53;;;;;;;40.60;16.80;;;0.20;99.90;;;;;;5057239;28;20473;-77
2022/01/18 06:52:18;;;;;;;46.28;19.45;;;0.20;99.90;;;;;;5058694;28;20032;-77
2022/01/18 06:54:44;;;;;;;59.58;19.55;;;0.20;99.90;;;;;;5058392;28;20020;-78
2022/01/18 06:57:10;;;;;;;45.42;17.88;;;0.30;99.90;;;;;;5056649;28;20033;-77
2022/01/18 06:59:36;;;;;;;34.05;16.73;;;0.30;99.90;;;;;;5058438;28;20021;-77
2022/01/18 07:02:03;;;;;;;57.22;16.23;;;0.30;99.90;;;;;;5057234;28;20504;-77
2022/01/18 07:04:29;;;;;;;42.67;16.15;;;0.30;99.90;;;;;;5057331;28;20025;-78
2022/01/18 07:06:55;;;;;;;29.23;16.83;;;0.30;99.90;;;;;;5058516;28;20021;-78
2022/01/18 07:09:23;;;;;;;48.22;15.80;;;0.30;99.90;;;;;;5056813;28;20041;-78
2022/01/18 07:11:56;;;;;;;37.83;15.95;;;0.30;99.90;;;;;;5041352;28;20535;-78
2022/01/18 07:14:23;;;;;;;39.05;15.90;;;0.30;99.90;;;;;;5042140;28;20115;-78
2022/01/18 07:16:48;;;;;;;33.85;15.18;;;0.30;99.90;;;;;;5050173;28;20025;-78
2022/01/18 07:19:14;;;;;;;57.60;18.70;;;0.30;99.90;;;;;;5057816;28;20028;-78
2022/01/18 07:21:40;;;;;;;48.58;18.05;;;0.30;99.90;;;;;;5058056;28;20021;-78
2022/01/18 07:24:16;;;;;;;46.42;17.52;;;0.20;99.90;;;;;;5057979;28;20528;-78
2022/01/18 07:26:43;;;;;;;30.25;17.60;;;0.20;99.90;;;;;;5057479;28;20035;-78
2022/01/18 07:29:08;;;;;;;36.05;18.10;;;0.30;99.90;;;;;;5058038;28;20024;-78
2022/01/18 07:31:34;;;;;;;31.67;17.73;;;0.30;99.90;;;;;;5057907;28;20471;-78
2022/01/18 07:34:00;;;;;;;43.22;18.80;;;0.40;99.90;;;;;;5058121;28;20440;-78
2022/01/18 07:36:26;;;;;;;38.45;18.02;;;0.40;99.90;;;;;;5051822;28;20025;-79
2022/01/18 07:38:51;;;;;;;35.58;19.15;;;0.40;99.90;;;;;;5046538;28;20025;-78
2022/01/18 07:41:18;;;;;;;33.95;17.42;;;0.40;99.90;;;;;;5044446;28;20040;-78
2022/01/18 07:43:44;;;;;;;38.60;17.73;;;0.40;99.90;;;;;;5052692;28;20033;-78
2022/01/18 07:46:09;;;;;;;56.78;20.40;;;0.40;99.90;;;;;;5055441;28;20028;-78
2022/01/18 07:48:35;;;;;;;52.92;18.00;;;0.40;99.90;;;;;;5056444;28;20021;-78
2022/01/18 07:51:01;;;;;;;31.25;18.10;;;0.40;99.90;;;;;;5057254;28;20021;-79
2022/01/18 07:53:27;;;;;;;41.42;19.92;;;0.40;99.90;;;;;;5055025;28;20048;-77
2022/01/18 07:55:53;;;;;;;41.75;19.23;;;0.40;99.90;;;;;;5050279;28;20055;-76
2022/01/18 07:58:19;;;;;;;43.55;18.65;;;0.40;99.90;;;;;;5053228;28;20397;-77
2022/01/18 08:00:47;;;;;;;38.65;16.52;;;0.40;99.90;;;;;;5054664;28;20033;-77
2022/01/18 08:03:13;;;;;;;38.88;17.63;;;0.30;99.90;;;;;;5068987;28;20505;-77
2022/01/18 08:05:39;;;;;;;55.60;20.08;;;0.40;99.90;;;;;;5052338;28;20029;-77
2022/01/18 08:08:05;;;;;;;74.95;20.20;;;0.40;99.90;;;;;;5048847;28;20102;-77
2022/01/18 08:10:32;;;;;;;92.03;18.80;;;0.40;99.90;;;;;;5047206;28;20079;-77
2022/01/18 08:13:01;;;;;;;70.75;20.95;;;0.30;99.90;;;;;;5051873;28;20032;-77
2022/01/18 08:15:36;;;;;;;65.68;24.58;;;0.30;99.90;;;;;;5048187;28;20533;-77
2022/01/18 08:18:03;;;;;;;64.60;17.02;;;0.30;99.90;;;;;;5057312;28;20374;-76
2022/01/18 08:20:29;;;;;;;59.95;21.10;;;0.30;99.90;;;;;;5055815;28;20025;-77
2022/01/18 08:22:54;;;;;;;123.47;40.20;;;0.30;99.90;;;;;;5057202;28;20021;-77
2022/01/18 08:25:22;;;;;;;79.32;35.08;;;0.30;99.90;;;;;;5057127;28;20029;-77
2022/01/18 08:27:48;;;;;;;453.92;183.68;;;0.40;99.90;;;;;;5055253;28;20074;-77
2022/01/18 08:30:19;;;;;;;166.75;58.25;;;0.40;99.90;;;;;;5052866;28;20041;-77
2022/01/18 08:32:46;;;;;;;127.60;23.67;;;0.50;99.90;;;;;;5055584;28;20040;-77
2022/01/18 08:35:12;;;;;;;81.30;20.98;;;0.50;99.90;;;;;;5056758;28;20025;-77
2022/01/18 08:37:39;;;;;;;406.02;168.57;;;0.50;99.90;;;;;;5056702;28;20104;-77
2022/01/18 08:40:05;;;;;;;64.57;20.48;;;0.50;99.90;;;;;;5056751;28;20029;-77
2022/01/18 08:42:31;;;;;;;109.47;38.83;;;0.50;99.90;;;;;;5056640;28;20018;-76
2022/01/18 08:44:57;;;;;;;84.97;21.30;;;0.50;99.90;;;;;;5056897;28;20061;-77
2022/01/18 08:47:24;;;;;;;85.32;21.52;;;0.50;99.90;;;;;;5055529;28;20033;-77
2022/01/18 08:49:50;;;;;;;42.08;17.40;;;0.50;99.90;;;;;;5055203;28;20025;-77
2022/01/18 08:52:16;;;;;;;38.05;18.85;;;0.50;99.90;;;;;;5056892;28;20017;-76
2022/01/18 08:54:43;;;;;;;49.85;21.20;;;0.60;99.90;;;;;;5056137;28;20104;-77
2022/01/18 08:57:10;;;;;;;34.22;20.83;;;0.60;99.90;;;;;;5056648;28;20047;-77
2022/01/18 08:59:36;;;;;;;35.85;19.67;;;0.60;99.90;;;;;;5056360;28;20526;-77
2022/01/18 09:02:04;;;;;;;35.42;20.80;;;0.70;99.90;;;;;;5055490;28;20025;-77
2022/01/18 09:04:30;;;;;;;43.30;18.98;;;0.80;99.90;;;;;;5056795;28;20033;-77
2022/01/18 09:06:57;;;;;;;42.97;16.67;;;0.80;99.90;;;;;;5055518;28;20043;-77
2022/01/18 09:09:25;;;;;;;65.43;17.20;;;0.80;99.90;;;;;;5056385;28;20052;-77
2022/01/18 09:11:51;;;;;;;27.20;16.63;;;0.70;99.90;;;;;;5054971;28;20138;-77
2022/01/18 09:14:17;;;;;;;38.55;19.13;;;0.80;99.90;;;;;;5056500;28;20060;-77
2022/01/18 09:16:42;;;;;;;31.85;19.00;;;0.80;99.90;;;;;;5055530;28;20028;-77
2022/01/18 09:19:08;;;;;;;34.22;18.15;;;0.90;99.90;;;;;;5056478;28;20075;-77
2022/01/18 09:21:34;;;;;;;47.08;17.73;;;0.90;99.90;;;;;;5059203;28;20033;-77
2022/01/18 09:24:01;;;;;;;34.40;17.13;;;0.90;99.90;;;;;;5060365;28;20033;-78
2022/01/18 09:26:27;;;;;;;30.48;16.45;;;0.90;99.90;;;;;;5048165;28;20041;-77
2022/01/18 09:28:53;;;;;;;28.90;17.65;;;0.90;99.90;;;;;;5058870;28;20198;-78
2022/01/18 09:31:19;;;;;;;36.47;18.75;;;0.90;99.90;;;;;;5060252;28;20029;-78
2022/01/18 09:33:45;;;;;;;30.90;19.45;;;0.90;99.90;;;;;;5054995;28;20105;-78
2022/01/18 09:36:11;;;;;;;40.70;20.33;;;1.00;99.90;;;;;;5054603;28;20057;-77
2022/01/18 09:38:37;;;;;;;30.67;19.20;;;1.00;99.90;;;;;;5059964;28;20051;-78
2022/01/18 09:41:10;;;;;;;30.38;21.63;;;1.00;99.90;;;;;;5060126;28;20017;-77
2022/01/18 09:43:38;;;;;;;37.00;17.25;;;1.00;99.90;;;;;;5058261;28;20061;-77
2022/01/18 09:46:05;;;;;;;33.47;17.38;;;1.00;99.90;;;;;;5059879;28;20039;-77
2022/01/18 09:48:32;;;;;;;41.28;16.80;;;1.00;99.90;;;;;;5060114;28;20029;-78
2022/01/18 09:50:59;;;;;;;42.60;15.73;;;1.00;99.90;;;;;;5058657;28;20025;-77
2022/01/18 09:53:25;;;;;;;25.33;16.05;;;1.00;99.90;;;;;;5058826;28;20386;-77
2022/01/18 09:55:53;;;;;;;22.70;15.98;;;1.00;99.90;;;;;;5053377;28;20021;-78
2022/01/18 09:58:19;;;;;;;22.92;15.52;;;1.10;99.90;;;;;;5058186;28;20029;-78
2022/01/18 10:00:46;;;;;;;25.10;16.48;;;1.20;99.90;;;;;;5059537;28;20481;-77
2022/01/18 10:03:34;;;;;;;39.65;17.38;;;1.40;99.90;;;;;;5047667;28;20083;-77
2022/01/18 10:06:01;;;;;;;23.45;15.75;;;1.40;99.90;;;;;;5057606;28;20032;-78
2022/01/18 10:08:27;;;;;;;30.48;18.30;;;1.50;99.90;;;;;;5041461;28;20072;-77
2022/01/18 10:10:59;;;;;;;39.80;26.83;;;1.60;99.90;;;;;;5038605;28;20045;-77
2022/01/18 10:13:31;;;;;;;22.92;16.80;;;1.60;99.90;;;;;;5043506;28;20017;-77
2022/01/18 10:16:05;;;;;;;27.33;17.15;;;1.60;99.90;;;;;;5058159;28;20079;-77
2022/01/18 10:18:42;;;;;;;26.27;16.00;;;1.70;99.90;;;;;;5058856;28;20033;-78
2022/01/18 10:21:08;;;;;;;29.60;17.83;;;1.70;99.90;;;;;;5058248;28;20104;-77
2022/01/18 10:23:35;;;;;;;39.75;20.73;;;1.70;99.90;;;;;;5058620;28;20094;-77
2022/01/18 10:26:23;;;;;;;27.83;17.75;;;1.80;99.90;;;;;;5056088;28;20056;-78
2022/01/18 10:29:05;;;;;;;28.48;17.98;;;1.80;99.90;;;;;;5053493;28;20037;-78
2022/01/18 10:31:58;;;;;;;37.13;18.60;;;1.70;99.90;;;;;;5054152;28;20100;-78
2022/01/18 10:37:14;;;;;;;36.28;18.50;;;1.80;99.90;;;;;;5057702;28;20021;-81
2022/01/18 10:39:41;;;;;;;29.48;19.58;;;1.80;99.90;;;;;;5058852;28;20037;-78
2022/01/18 10:42:28;;;;;;;34.75;19.85;;;1.70;99.90;;;;;;5058278;28;20036;-80
2022/01/18 10:45:04;;;;;;;44.63;21.55;;;1.70;99.90;;;;;;5057295;28;20378;-80
2022/01/18 10:47:33;;;;;;;40.25;21.27;;;1.70;99.90;;;;;;5050470;28;20029;-80
2022/01/18 10:50:11;;;;;;;34.55;20.95;;;1.80;99.90;;;;;;5056666;28;20100;-80
2022/01/18 10:52:37;;;;;;;33.67;20.13;;;1.80;99.90;;;;;;5058786;28;20096;-82
2022/01/18 10:55:04;;;;;;;31.52;21.73;;;1.90;99.90;;;;;;5059883;28;20021;-81
2022/01/18 10:57:36;;;;;;;47.15;21.55;;;2.00;99.90;;;;;;5058637;28;20384;-82
2022/01/18 11:00:07;;;;;;;32.35;21.83;;;1.80;99.90;;;;;;5059042;28;20017;-81
2022/01/18 11:02:48;;;;;;;34.63;20.50;;;1.90;99.90;;;;;;5056497;28;20021;-82
2022/01/18 11:05:25;;;;;;;38.85;25.08;;;1.90;99.90;;;;;;5057706;28;20039;-79
2022/01/18 11:07:52;;;;;;;38.40;22.52;;;1.90;99.90;;;;;;5058121;28;20037;-81
2022/01/18 11:10:21;;;;;;;41.10;22.67;;;2.00;99.90;;;;;;5058267;28;20033;-80
2022/01/18 11:12:56;;;;;;;33.83;23.20;;;1.90;99.90;;;;;;5057870;28;20024;-80
2022/01/18 11:15:24;;;;;;;43.20;24.02;;;2.00;99.90;;;;;;5058053;28;20557;-80
2022/01/18 11:17:56;;;;;;;39.35;22.55;;;2.00;99.90;;;;;;5046023;28;20377;-80
2022/01/18 11:20:23;;;;;;;42.25;23.83;;;2.00;99.90;;;;;;5056787;28;20436;-78
2022/01/18 11:22:50;;;;;;;36.30;23.88;;;2.00;99.90;;;;;;5058250;28;20067;-78
2022/01/18 11:25:17;;;;;;;34.78;21.27;;;2.10;99.90;;;;;;5058037;28;20033;-78
2022/01/18 11:27:48;;;;;;;36.65;21.73;;;1.90;99.90;;;;;;5047586;28;20072;-78
2022/01/18 11:30:14;;;;;;;;;;;2.00;99.90;;;;;;5052920;28;20123;-78
2022/01/18 11:32:41;;;;;;;37.88;22.52;;;2.10;99.90;;;;;;5058297;28;19940;-78
2022/01/18 11:35:20;;;;;;;35.05;23.27;;;2.10;99.90;;;;;;5057713;28;20019;-78
2022/01/18 11:38:02;;;;;;;32.65;21.17;;;2.10;99.90;;;;;;5058083;28;20025;-78
2022/01/18 11:40:46;;;;;;;34.30;23.75;;;2.00;99.90;;;;;;5057975;28;20066;-78
2022/01/18 11:43:12;;;;;;;39.08;25.63;;;2.20;99.90;;;;;;5056075;28;20037;-79
2022/01/18 11:45:41;;;;;;;36.40;24.40;;;2.20;99.90;;;;;;5057978;28;20027;-78
2022/01/18 11:48:14;;;;;;;36.25;23.42;;;2.30;99.90;;;;;;5055875;28;20107;-79
2022/01/18 11:51:02;;;;;;;36.60;23.35;;;2.40;99.90;;;;;;5057592;28;20029;-78
2022/01/18 11:56:33;;;;;;;41.25;25.88;;;2.40;99.90;;;;;;5057129;28;20055;-78
2022/01/18 11:59:13;;;;;;;39.47;22.55;;;2.50;99.90;;;;;;5046807;28;20053;-79
2022/01/18 12:01:51;;;;;;;36.57;21.03;;;2.60;99.90;;;;;;5053186;28;20030;-78
2022/01/18 12:04:45;;;;;;;45.50;22.58;;;2.50;99.90;;;;;;5052292;28;20057;-77
2022/01/18 12:07:30;;;;;;;32.20;23.63;;;2.50;99.90;;;;;;5057349;28;20032;-79
2022/01/18 12:09:56;;;;;;;38.47;21.58;;;2.40;99.90;;;;;;5057216;28;20036;-78
2022/01/18 12:12:46;;;;;;;31.73;20.33;;;2.40;99.90;;;;;;5056029;28;20052;-78
2022/01/18 12:15:22;;;;;;;36.63;21.33;;;2.40;99.90;;;;;;5056419;28;20408;-78
2022/01/18 12:17:50;;;;;;;34.67;21.13;;;2.40;99.90;;;;;;5055702;28;20082;-78
2022/01/18 12:20:39;;;;;;;34.40;22.30;;;2.50;99.90;;;;;;5056533;28;20081;-79
2022/01/18 12:23:10;;;;;;;30.95;19.95;;;2.60;99.90;;;;;;5056747;28;20024;-79
2022/01/18 12:25:52;;;;;;;33.88;20.83;;;2.70;99.90;;;;;;5056585;28;20397;-78
2022/01/18 12:28:48;;;;;;;33.67;21.65;;;2.70;99.90;;;;;;5054570;28;20025;-78
2022/01/18 12:34:28;;;;;;;44.78;29.58;;;2.70;99.90;;;;;;5055627;28;20389;-78
2022/01/18 12:37:07;;;;;;;50.13;28.92;;;2.60;99.90;;;;;;5055977;28;20026;-77
2022/01/18 12:44:58;;;;;;;46.65;29.85;;;2.60;99.90;;;;;;5043365;28;20489;-78
2022/01/18 12:47:24;;;;;;;41.13;26.95;;;2.60;99.90;;;;;;5055959;28;20025;-80
2022/01/18 12:49:53;;;;;;;39.25;25.33;;;2.70;99.90;;;;;;5056110;28;20025;-79
2022/01/18 12:52:20;;;;;;;42.03;26.83;;;2.80;99.90;;;;;;5056497;28;20013;-80
2022/01/18 12:54:48;;;;;;;48.50;37.38;;;2.80;99.90;;;;;;5047914;28;20021;-78
2022/01/18 12:57:14;;;;;;;46.47;28.58;;;2.80;99.90;;;;;;5049231;28;20022;-77
2022/01/18 13:00:07;;;;;;;41.50;27.33;;;2.70;99.90;;;;;;5058471;28;20025;-76
2022/01/18 13:02:33;;;;;;;48.13;29.95;;;2.80;99.90;;;;;;5049963;28;20135;-76
2022/01/18 13:05:08;;;;;;;43.00;29.48;;;2.80;99.90;;;;;;5040391;28;20045;-76
2022/01/18 13:07:49;;;;;;;47.78;28.98;;;2.80;99.90;;;;;;5043364;28;20021;-76
2022/01/18 13:10:15;;;;;;;44.30;28.50;;;2.90;99.90;;;;;;5058877;28;20546;-75
2022/01/18 13:12:41;;;;;;;46.47;28.83;;;2.90;99.90;;;;;;5054124;28;20021;-77
2022/01/18 13:15:08;;;;;;;51.30;30.20;;;2.90;99.90;;;;;;5059788;28;20021;-77
2022/01/18 13:23:52;;;;;;;53.80;30.85;;;2.90;99.90;;;;;;5028231;28;20040;-78
2022/01/18 13:26:37;;;;;;;50.05;29.27;;;2.90;99.90;;;;;;5057582;28;20029;-78
2022/01/18 13:29:14;;;;;;;49.45;30.15;;;2.90;99.90;;;;;;5060276;28;20029;-78
2022/01/18 13:31:43;;;;;;;45.65;30.55;;;2.90;99.90;;;;;;5059994;28;20053;-78
2022/01/18 13:34:12;;;;;;;54.45;31.23;;;3.00;99.90;;;;;;5060564;28;20032;-78
2022/01/18 13:36:52;;;;;;;45.83;29.45;;;3.00;99.90;;;;;;5053283;28;20053;-78
2022/01/18 13:39:31;;;;;;;55.17;32.70;;;3.00;99.90;;;;;;5060407;28;20045;-78
2022/01/18 13:41:59;;;;;;;53.75;30.20;;;3.10;99.90;;;;;;5059742;28;20036;-78
2022/01/18 13:44:26;;;;;;;48.10;29.27;;;3.00;99.90;;;;;;5058863;28;20039;-78
2022/01/18 13:46:52;;;;;;;51.15;30.05;;;3.10;99.90;;;;;;5050801;28;20124;-78
2022/01/18 13:49:23;;;;;;;50.58;30.48;;;3.10;99.90;;;;;;5058724;28;20053;-78
2022/01/18 13:52:00;;;;;;;59.38;31.00;;;3.00;99.90;;;;;;5054077;28;20018;-78
2022/01/18 13:54:28;;;;;;;51.83;30.63;;;2.90;99.90;;;;;;5053851;28;20083;-78
2022/01/18 13:56:55;;;;;;;51.20;31.42;;;2.90;99.90;;;;;;5058314;28;20120;-78
2022/01/18 13:59:27;;;;;;;50.80;29.80;;;2.90;99.90;;;;;;5057064;28;20052;-78
2022/01/18 14:01:52;;;;;;;55.88;33.10;;;2.90;99.90;;;;;;5059887;28;20362;-78
2022/01/18 14:04:23;;;;;;;53.45;30.50;;;2.80;99.90;;;;;;5059245;28;20040;-78
2022/01/18 14:06:50;;;;;;;52.17;29.48;;;2.90;99.90;;;;;;5058691;28;20064;-78
2022/01/18 14:09:22;;;;;;;52.03;29.20;;;2.90;99.90;;;;;;5059839;28;20057;-78
2022/01/18 14:11:53;;;;;;;50.72;30.45;;;2.90;99.90;;;;;;5058089;28;20036;-78
2022/01/18 14:14:45;;;;;;;54.90;31.35;;;2.90;99.90;;;;;;5059686;28;20025;-78
2022/01/18 14:17:15;;;;;;;56.35;32.80;;;3.00;99.90;;;;;;5058362;28;20130;-78
2022/01/18 14:19:44;;;;;;;57.00;33.88;;;3.00;99.90;;;;;;5060122;28;20029;-78
2022/01/18 14:22:23;;;;;;;54.47;32.20;;;3.00;99.90;;;;;;5058413;28;20041;-78
2022/01/18 14:24:58;;;;;;;65.22;38.00;;;2.90;99.90;;;;;;5058170;28;20021;-78